createdAt,value
2022-09-20T00:01:28.504Z,9.65
2022-09-20T00:03:57.871Z,9.65
2022-09-20T00:06:30.532Z,9.68
2022-09-20T00:08:57.781Z,9.63
2022-09-20T00:11:26.823Z,9.60
2022-09-20T00:13:56.104Z,9.60
2022-09-20T00:16:29.297Z,9.60
2022-09-20T00:18:57.889Z,9.50
2022-09-20T00:21:29.827Z,9.56
2022-09-20T00:23:57.521Z,9.60
2022-09-20T00:26:25.657Z,9.60
2022-09-20T00:28:52.193Z,9.72
2022-09-20T00:31:19.429Z,9.79
2022-09-20T00:34:04.965Z,9.76
2022-09-20T00:36:31.508Z,9.76
2022-09-20T00:38:59.958Z,9.72
2022-09-20T00:41:27.205Z,9.67
2022-09-20T00:43:54.890Z,9.64
2022-09-20T00:46:32.936Z,9.71
2022-09-20T00:49:05.995Z,9.73
2022-09-20T00:51:37.220Z,9.61
2022-09-20T00:54:06.214Z,9.63
2022-09-20T00:56:36.059Z,9.71
2022-09-20T00:59:14.577Z,9.67
2022-09-20T01:01:42.072Z,9.76
2022-09-20T01:04:09.107Z,9.87
2022-09-20T01:06:36.119Z,9.91
2022-09-20T01:09:05.442Z,10.06
2022-09-20T01:11:32.017Z,9.92
2022-09-20T01:13:58.376Z,9.87
2022-09-20T01:16:26.840Z,9.97
2022-09-20T01:18:55.974Z,9.96
2022-09-20T01:21:22.526Z,9.93
2022-09-20T01:24:00.210Z,9.98
2022-09-20T01:26:41.764Z,10.03
2022-09-20T01:29:34.879Z,10.03
2022-09-20T01:32:03.927Z,10.01
2022-09-20T01:34:35.783Z,9.94
2022-09-20T01:37:26.515Z,9.85
2022-09-20T01:40:16.834Z,9.85
2022-09-20T01:42:57.434Z,9.76
2022-09-20T01:45:28.635Z,9.75
2022-09-20T01:48:13.105Z,9.66
2022-09-20T01:50:51.620Z,9.58
2022-09-20T01:53:48.555Z,9.32
2022-09-20T01:56:31.079Z,9.57
2022-09-20T01:59:23.168Z,9.63
2022-09-20T02:01:53.757Z,9.58
2022-09-20T02:04:57.924Z,9.59
2022-09-20T02:07:49.236Z,9.71
2022-09-20T02:10:55.857Z,9.67
2022-09-20T02:13:33.189Z,9.71
2022-09-20T02:16:08.847Z,9.67
2022-09-20T02:18:55.440Z,9.72
2022-09-20T02:22:11.415Z,9.71
2022-09-20T02:25:02.449Z,9.75
2022-09-20T02:27:56.917Z,9.71
2022-09-20T02:31:07.481Z,9.78
2022-09-20T02:33:52.065Z,9.86
2022-09-20T02:36:43.618Z,9.82
2022-09-20T02:39:22.180Z,9.84
2022-09-20T02:41:56.631Z,9.86
2022-09-20T02:44:40.601Z,9.76
2022-09-20T02:47:27.884Z,9.85
2022-09-20T02:50:22.721Z,9.71
2022-09-20T02:53:04.249Z,9.60
2022-09-20T02:55:55.699Z,9.60
2022-09-20T02:58:43.545Z,9.53
2022-09-20T03:01:34.640Z,9.51
2022-09-20T03:04:29.017Z,9.41
2022-09-20T03:07:01.963Z,9.45
2022-09-20T03:09:42.901Z,9.42
2022-09-20T03:12:34.230Z,9.47
2022-09-20T03:15:11.647Z,9.47
2022-09-20T03:17:58.588Z,9.36
2022-09-20T03:20:43.068Z,9.42
2022-09-20T03:23:35.742Z,9.36
2022-09-20T03:26:28.187Z,9.39
2022-09-20T03:29:12.163Z,9.36
2022-09-20T03:31:56.429Z,9.40
2022-09-20T03:34:51.207Z,9.36
2022-09-20T03:37:29.392Z,9.35
2022-09-20T03:40:15.465Z,9.32
2022-09-20T03:42:48.105Z,9.19
2022-09-20T03:45:24.145Z,9.33
2022-09-20T03:48:31.458Z,9.39
2022-09-20T03:51:16.163Z,9.35
2022-09-20T03:54:01.952Z,9.33
2022-09-20T03:56:54.737Z,9.32
2022-09-20T03:59:55.996Z,9.36
2022-09-20T04:02:40.870Z,9.37
2022-09-20T04:05:16.723Z,9.39
2022-09-20T04:08:14.087Z,9.21
2022-09-20T04:11:20.783Z,9.37
2022-09-20T04:13:59.190Z,9.37
2022-09-20T04:16:34.444Z,9.33
2022-09-20T04:19:21.647Z,9.24
2022-09-20T04:21:57.634Z,9.37
2022-09-20T04:24:30.009Z,9.39
2022-09-20T04:27:05.343Z,9.33
2022-09-20T04:29:53.088Z,9.36
2022-09-20T04:32:27.630Z,9.31
2022-09-20T04:35:30.609Z,9.24
2022-09-20T04:37:57.106Z,9.32
2022-09-20T04:40:52.136Z,9.40
2022-09-20T04:43:40.325Z,9.41
2022-09-20T04:46:28.423Z,9.41
2022-09-20T04:49:19.031Z,9.48
2022-09-20T04:52:04.083Z,9.40
2022-09-20T04:54:57.141Z,9.28
2022-09-20T04:58:01.540Z,9.36
2022-09-20T05:00:43.519Z,9.34
2022-09-20T05:03:50.881Z,9.34
2022-09-20T05:06:34.680Z,9.32
2022-09-20T05:09:36.688Z,8.76
2022-09-20T05:12:16.870Z,9.35
2022-09-20T05:15:08.295Z,9.36
2022-09-20T05:18:10.914Z,9.29
2022-09-20T05:20:51.679Z,9.49
2022-09-20T05:23:47.323Z,9.35
2022-09-20T05:26:34.853Z,9.29
2022-09-20T05:29:25.243Z,9.29
2022-09-20T05:32:01.435Z,9.32
2022-09-20T05:34:42.469Z,9.30
2022-09-20T05:37:33.212Z,9.26
2022-09-20T05:40:15.237Z,9.35
2022-09-20T05:43:00.349Z,9.28
2022-09-20T05:45:39.704Z,9.34
2022-09-20T05:48:18.135Z,9.33
2022-09-20T05:50:56.176Z,9.41
2022-09-20T05:53:48.960Z,9.46
2022-09-20T05:56:37.140Z,9.24
2022-09-20T05:59:25.780Z,9.48
2022-09-20T06:02:15.317Z,9.58
2022-09-20T06:05:17.402Z,9.63
2022-09-20T06:08:12.554Z,9.67
2022-09-20T06:11:01.983Z,9.80
2022-09-20T06:13:31.401Z,9.63
2022-09-20T06:16:05.854Z,9.55
2022-09-20T06:18:42.222Z,9.45
2022-09-20T06:21:23.260Z,9.37
2022-09-20T06:23:49.618Z,9.54
2022-09-20T06:26:27.660Z,9.35
2022-09-20T06:28:59.352Z,9.47
2022-09-20T06:31:26.739Z,9.31
2022-09-20T06:33:59.187Z,9.31
2022-09-20T06:36:49.612Z,9.46
2022-09-20T06:40:02.027Z,9.62
2022-09-20T06:42:29.524Z,9.57
2022-09-20T06:44:56.722Z,9.63
2022-09-20T06:47:23.267Z,9.54
2022-09-20T06:49:50.447Z,9.65
2022-09-20T06:52:22.662Z,9.61
2022-09-20T06:54:55.253Z,9.82
2022-09-20T06:57:39.421Z,9.88
2022-09-20T07:00:07.014Z,9.99
2022-09-20T07:02:33.455Z,10.15
2022-09-20T07:04:59.888Z,10.31
2022-09-20T07:07:26.314Z,10.37
2022-09-20T07:09:52.700Z,10.45
2022-09-20T07:12:19.066Z,10.84
2022-09-20T07:14:45.537Z,10.93
2022-09-20T07:17:12.067Z,11.38
2022-09-20T07:19:38.421Z,12.97
2022-09-20T07:22:04.847Z,13.20
2022-09-20T07:24:32.150Z,14.16
2022-09-20T07:27:04.225Z,14.36
2022-09-20T07:29:31.497Z,14.69
2022-09-20T07:31:58.602Z,15.21
2022-09-20T07:34:25.893Z,14.71
2022-09-20T07:36:52.369Z,14.94
2022-09-20T07:39:18.994Z,15.41
2022-09-20T07:41:48.315Z,15.10
2022-09-20T07:44:24.191Z,14.72
2022-09-20T07:46:50.644Z,13.83
2022-09-20T07:49:17.324Z,13.84
2022-09-20T07:51:43.885Z,14.38
2022-09-20T07:54:10.680Z,14.43
2022-09-20T07:56:37.859Z,14.49
2022-09-20T07:59:04.370Z,13.77
2022-09-20T08:01:31.168Z,13.06
2022-09-20T08:03:57.593Z,13.25
2022-09-20T08:06:24.652Z,12.70
2022-09-20T08:08:51.664Z,12.60
2022-09-20T08:11:20.393Z,12.71
2022-09-20T08:14:06.294Z,12.79
2022-09-20T08:16:41.834Z,13.03
2022-09-20T08:19:09.308Z,13.81
2022-09-20T08:21:38.767Z,14.84
2022-09-20T08:24:05.304Z,14.03
2022-09-20T08:26:31.801Z,13.73
2022-09-20T08:28:59.750Z,13.24
2022-09-20T08:31:31.314Z,13.49
2022-09-20T08:33:59.022Z,12.95
2022-09-20T08:36:26.212Z,12.75
2022-09-20T08:41:48.535Z,12.42
2022-09-20T08:44:26.262Z,12.41
2022-09-20T08:47:19.123Z,12.74
2022-09-20T08:49:46.722Z,12.53
2022-09-20T08:52:19.705Z,12.60
2022-09-20T08:54:46.798Z,12.75
2022-09-20T08:57:18.476Z,12.43
2022-09-20T08:59:45.063Z,12.46
2022-09-20T09:02:20.910Z,12.74
2022-09-20T09:04:49.765Z,12.71
2022-09-20T09:07:24.365Z,12.68
2022-09-20T09:09:54.195Z,12.54
2022-09-20T09:12:28.044Z,12.05
2022-09-20T09:14:59.709Z,12.76
2022-09-20T09:17:28.705Z,13.32
2022-09-20T09:20:14.894Z,13.55
2022-09-20T09:22:44.006Z,13.47
2022-09-20T09:25:21.475Z,14.00
2022-09-20T09:27:56.058Z,14.44
2022-09-20T09:30:26.344Z,14.24
2022-09-20T09:33:13.491Z,13.67
2022-09-20T09:35:39.883Z,13.36
2022-09-20T09:38:18.543Z,13.20
2022-09-20T09:40:57.851Z,13.34
2022-09-20T09:43:29.952Z,13.35
2022-09-20T09:46:16.626Z,13.03
2022-09-20T09:48:47.367Z,13.23
2022-09-20T09:51:19.291Z,13.47
2022-09-20T09:53:47.788Z,13.93
2022-09-20T09:56:22.939Z,16.00
2022-09-20T09:59:19.156Z,15.77
2022-09-20T10:02:12.907Z,16.45
2022-09-20T10:04:52.600Z,17.46
2022-09-20T10:07:44.894Z,17.73
2022-09-20T10:10:29.437Z,16.10
2022-09-20T10:13:04.253Z,15.30
2022-09-20T10:15:57.819Z,15.42
2022-09-20T10:18:42.310Z,14.42
2022-09-20T10:21:25.029Z,14.64
2022-09-20T10:24:03.699Z,14.58
2022-09-20T10:26:49.095Z,14.53
2022-09-20T10:29:21.766Z,14.05
2022-09-20T10:32:18.888Z,14.38
2022-09-20T10:35:08.469Z,14.40
2022-09-20T10:38:08.145Z,14.04
2022-09-20T10:41:30.683Z,13.88
2022-09-20T10:44:06.031Z,14.03
2022-09-20T10:46:40.576Z,13.98
2022-09-20T10:49:23.725Z,14.48
2022-09-20T10:52:20.342Z,14.68
2022-09-20T10:55:09.184Z,14.75
2022-09-20T10:58:01.520Z,14.56
2022-09-20T11:00:45.280Z,14.57
2022-09-20T11:03:53.376Z,14.78
2022-09-20T11:06:52.453Z,14.74
2022-09-20T11:09:34.762Z,14.56
2022-09-20T11:12:04.335Z,14.38
2022-09-20T11:14:44.082Z,14.10
2022-09-20T11:17:43.121Z,14.07
2022-09-20T11:20:22.057Z,14.07
2022-09-20T11:23:14.488Z,14.05
2022-09-20T11:25:51.811Z,14.19
2022-09-20T11:28:39.322Z,14.11
2022-09-20T11:31:26.726Z,14.26
2022-09-20T11:33:59.413Z,14.11
2022-09-20T11:36:39.471Z,15.18
2022-09-20T11:39:20.828Z,15.66
2022-09-20T11:41:51.626Z,17.06
2022-09-20T11:44:19.799Z,18.51
2022-09-20T11:46:54.795Z,18.21
2022-09-20T11:49:28.142Z,19.84
2022-09-20T11:52:22.491Z,19.09
2022-09-20T11:55:20.263Z,18.24
2022-09-20T11:58:02.298Z,17.93
2022-09-20T12:00:32.324Z,19.33
2022-09-20T12:03:00.095Z,18.18
2022-09-20T12:05:44.479Z,17.82
2022-09-20T12:08:27.821Z,17.27
2022-09-20T12:11:04.182Z,16.67
2022-09-20T12:13:35.312Z,16.59
2022-09-20T12:16:08.660Z,16.17
2022-09-20T12:18:35.723Z,16.29
2022-09-20T12:21:16.569Z,16.08
2022-09-20T12:23:59.555Z,16.35
2022-09-20T12:26:25.857Z,15.81
2022-09-20T12:28:52.156Z,15.47
2022-09-20T12:31:18.551Z,15.05
2022-09-20T12:33:57.442Z,14.70
2022-09-20T12:36:24.384Z,15.63
2022-09-20T12:39:10.930Z,16.10
2022-09-20T12:41:48.508Z,16.66
2022-09-20T12:44:41.686Z,16.51
2022-09-20T12:47:10.733Z,17.37
2022-09-20T12:50:01.315Z,19.54
2022-09-20T12:52:48.145Z,20.00
2022-09-20T12:55:26.994Z,21.40
2022-09-20T12:58:19.303Z,21.83
2022-09-20T13:00:48.529Z,21.50
2022-09-20T13:03:14.891Z,22.02
2022-09-20T13:05:47.187Z,22.14
2022-09-20T13:08:28.484Z,21.97
2022-09-20T13:11:13.231Z,19.41
2022-09-20T13:13:43.236Z,19.79
2022-09-20T13:16:24.074Z,18.60
2022-09-20T13:19:06.728Z,19.73
2022-09-20T13:21:36.519Z,19.18
2022-09-20T13:24:03.449Z,18.70
2022-09-20T13:26:36.541Z,19.33
2022-09-20T13:29:07.090Z,18.58
2022-09-20T13:31:34.963Z,18.20
2022-09-20T13:34:19.073Z,17.88
2022-09-20T13:36:45.603Z,17.44
2022-09-20T13:39:26.723Z,16.94
2022-09-20T13:41:53.364Z,17.16
2022-09-20T13:44:20.101Z,16.36
2022-09-20T13:46:46.487Z,16.38
2022-09-20T13:49:20.896Z,15.92
2022-09-20T13:51:48.840Z,16.09
2022-09-20T13:54:24.328Z,15.93
2022-09-20T13:56:51.713Z,15.96
2022-09-20T13:59:19.555Z,16.30
2022-09-20T14:01:53.510Z,15.89
2022-09-20T14:04:25.717Z,15.90
2022-09-20T14:06:56.306Z,15.61
2022-09-20T14:09:30.716Z,15.71
2022-09-20T14:11:58.744Z,16.39
2022-09-20T14:14:26.432Z,16.15
2022-09-20T14:16:56.409Z,16.12
2022-09-20T14:19:31.656Z,15.52
2022-09-20T14:22:02.895Z,15.28
2022-09-20T14:24:34.443Z,15.68
2022-09-20T14:27:04.503Z,15.75
2022-09-20T14:29:33.647Z,16.13
2022-09-20T14:32:06.308Z,15.48
2022-09-20T14:34:37.208Z,15.82
2022-09-20T14:37:13.615Z,15.86
2022-09-20T14:39:53.801Z,15.82
2022-09-20T14:42:29.388Z,15.36
2022-09-20T14:44:55.998Z,15.48
2022-09-20T14:47:27.643Z,15.90
2022-09-20T14:49:54.269Z,15.90
2022-09-20T14:52:29.668Z,15.86
2022-09-20T14:55:02.511Z,16.19
2022-09-20T14:57:30.246Z,15.91
2022-09-20T14:59:59.592Z,16.11
2022-09-20T15:02:26.806Z,15.56
2022-09-20T15:05:00.241Z,15.57
2022-09-20T15:07:26.838Z,15.36
2022-09-20T15:09:53.334Z,15.45
2022-09-20T15:12:21.409Z,15.39
2022-09-20T15:14:48.486Z,15.24
2022-09-20T15:17:18.084Z,15.02
2022-09-20T15:19:45.437Z,14.92
2022-09-20T15:22:11.835Z,14.67
2022-09-20T15:24:38.760Z,14.61
2022-09-20T15:27:05.786Z,14.68
2022-09-20T15:29:32.452Z,14.29
2022-09-20T15:31:59.740Z,14.15
2022-09-20T15:34:26.279Z,14.10
2022-09-20T15:36:54.139Z,14.09
2022-09-20T15:39:22.235Z,13.87
2022-09-20T15:41:52.003Z,14.06
2022-09-20T15:44:18.441Z,13.89
2022-09-20T15:46:44.805Z,13.74
2022-09-20T15:49:12.347Z,13.78
2022-09-20T15:51:39.313Z,13.81
2022-09-20T15:54:07.683Z,13.79
2022-09-20T15:56:36.820Z,14.09
2022-09-20T15:59:05.537Z,13.99
2022-09-20T16:01:33.628Z,13.82
2022-09-20T16:04:00.255Z,13.50
2022-09-20T16:06:26.713Z,13.71
2022-09-20T16:08:53.072Z,13.66
2022-09-20T16:11:22.928Z,13.74
2022-09-20T16:13:54.427Z,13.59
2022-09-20T16:16:21.014Z,13.45
2022-09-20T16:19:05.956Z,13.49
2022-09-20T16:21:32.449Z,13.12
2022-09-20T16:23:59.194Z,12.71
2022-09-20T16:26:27.744Z,13.03
2022-09-20T16:28:55.683Z,12.92
2022-09-20T16:31:34.975Z,12.93
2022-09-20T16:34:03.689Z,12.78
2022-09-20T16:36:31.055Z,12.34
2022-09-20T16:38:58.395Z,12.59
2022-09-20T16:41:26.944Z,12.51
2022-09-20T16:43:53.589Z,12.25
2022-09-20T16:46:22.036Z,12.45
2022-09-20T16:48:49.816Z,12.15
2022-09-20T16:51:16.175Z,12.07
2022-09-20T16:53:43.451Z,12.23
2022-09-20T16:56:19.152Z,12.02
2022-09-20T16:58:45.842Z,11.74
2022-09-20T17:01:12.761Z,11.68
2022-09-20T17:03:40.923Z,11.56
2022-09-20T17:06:08.793Z,11.61
2022-09-20T17:08:40.053Z,11.61
2022-09-20T17:11:12.197Z,11.61
2022-09-20T17:13:41.558Z,11.12
2022-09-20T17:16:12.636Z,11.05
2022-09-20T17:18:41.973Z,10.97
2022-09-20T17:21:17.561Z,10.88
2022-09-20T17:23:51.155Z,10.85
2022-09-20T17:26:18.662Z,10.77
2022-09-20T17:28:49.394Z,10.75
2022-09-20T17:31:18.930Z,10.75
2022-09-20T17:33:45.927Z,10.54
2022-09-20T17:36:15.461Z,10.42
2022-09-20T17:38:42.768Z,10.23
2022-09-20T17:41:13.995Z,10.21
2022-09-20T17:43:42.230Z,10.11
2022-09-20T17:46:22.726Z,9.88
2022-09-20T17:48:54.346Z,9.77
2022-09-20T17:51:25.094Z,9.54
2022-09-20T17:53:52.975Z,9.53
2022-09-20T17:56:23.166Z,9.41
2022-09-20T17:58:50.048Z,9.25
2022-09-20T18:01:18.509Z,9.16
2022-09-20T18:03:48.159Z,9.15
2022-09-20T18:06:20.041Z,9.07
2022-09-20T18:08:48.453Z,8.94
2022-09-20T18:11:16.585Z,8.81
2022-09-20T18:13:43.622Z,8.79
2022-09-20T18:16:14.768Z,8.72
2022-09-20T18:18:43.555Z,8.69
2022-09-20T18:21:12.044Z,8.67
2022-09-20T18:23:38.718Z,8.64
2022-09-20T18:26:32.249Z,8.65
2022-09-20T18:29:12.859Z,8.69
2022-09-20T18:31:54.463Z,8.65
2022-09-20T18:34:23.682Z,8.62
2022-09-20T18:36:55.066Z,8.65
2022-09-20T18:39:29.209Z,8.39
2022-09-20T18:41:55.738Z,8.61
2022-09-20T18:44:23.046Z,8.67
2022-09-20T18:46:52.911Z,8.61
2022-09-20T18:49:21.006Z,8.58
2022-09-20T18:51:48.513Z,8.58
2022-09-20T18:54:15.449Z,8.70
2022-09-20T18:56:43.543Z,8.72
2022-09-20T18:59:17.689Z,8.79
2022-09-20T19:01:48.380Z,8.68
2022-09-20T19:04:52.173Z,8.67
2022-09-20T19:07:36.763Z,8.64
2022-09-20T19:10:05.797Z,8.66
2022-09-20T19:12:59.834Z,8.72
2022-09-20T19:15:56.276Z,8.75
2022-09-20T19:18:47.584Z,8.76
2022-09-20T19:21:22.808Z,8.82
2022-09-20T19:24:18.545Z,8.99
2022-09-20T19:26:45.558Z,9.16
2022-09-20T19:29:19.991Z,9.26
2022-09-20T19:31:51.314Z,8.99
2022-09-20T19:34:21.352Z,8.92
2022-09-20T19:36:57.897Z,8.76
2022-09-20T19:39:42.443Z,8.66
2022-09-20T19:42:14.113Z,8.61
2022-09-20T19:45:06.791Z,8.57
2022-09-20T19:47:46.469Z,8.52
2022-09-20T19:50:28.072Z,8.54
2022-09-20T19:52:57.841Z,8.58
2022-09-20T19:55:24.732Z,8.54
2022-09-20T19:57:51.459Z,8.61
2022-09-20T20:00:20.589Z,8.54
2022-09-20T20:02:47.702Z,8.49
2022-09-20T20:05:16.925Z,8.46
2022-09-20T20:08:10.292Z,8.33
2022-09-20T20:10:58.175Z,8.24
2022-09-20T20:14:02.443Z,8.05
2022-09-20T20:16:48.833Z,7.97
2022-09-20T20:19:30.358Z,7.89
2022-09-20T20:22:04.686Z,7.86
2022-09-20T20:24:50.043Z,7.74
2022-09-20T20:27:16.406Z,7.74
2022-09-20T20:29:42.773Z,7.63
2022-09-20T20:32:09.805Z,7.57
2022-09-20T20:34:37.013Z,7.61
2022-09-20T20:37:04.264Z,7.60
2022-09-20T20:39:31.918Z,7.51
2022-09-20T20:42:02.394Z,7.48
2022-09-20T20:44:30.720Z,7.40
2022-09-20T20:46:57.290Z,7.46
2022-09-20T20:49:24.639Z,7.51
2022-09-20T20:51:50.997Z,7.46
2022-09-20T20:54:17.402Z,7.60
2022-09-20T20:56:43.861Z,7.66
2022-09-20T20:59:10.272Z,7.59
2022-09-20T21:01:38.348Z,7.73
2022-09-20T21:04:07.814Z,7.73
2022-09-20T21:06:36.170Z,7.64
2022-09-20T21:09:04.784Z,7.66
2022-09-20T21:11:34.254Z,7.68
2022-09-20T21:14:02.409Z,7.71
2022-09-20T21:16:35.056Z,7.62
2022-09-20T21:19:02.292Z,7.56
2022-09-20T21:21:31.317Z,7.57
2022-09-20T21:23:59.952Z,7.65
2022-09-20T21:26:27.692Z,7.58
2022-09-20T21:29:01.898Z,7.47
2022-09-20T21:31:34.367Z,7.21
2022-09-20T21:34:01.460Z,7.16
2022-09-20T21:36:29.731Z,7.07
2022-09-20T21:38:56.574Z,6.96
2022-09-20T21:41:25.540Z,6.97
2022-09-20T21:43:55.260Z,6.85
2022-09-20T21:46:29.976Z,6.89
2022-09-20T21:48:57.805Z,6.77
2022-09-20T21:51:25.529Z,6.76
2022-09-20T21:53:57.407Z,6.64
2022-09-20T21:56:27.396Z,6.64
2022-09-20T21:58:54.796Z,6.54
2022-09-20T22:01:23.914Z,6.59
2022-09-20T22:03:52.822Z,6.40
2022-09-20T22:06:25.432Z,6.45
2022-09-20T22:08:52.967Z,6.38
2022-09-20T22:11:21.845Z,6.41
2022-09-20T22:13:50.731Z,6.41
2022-09-20T22:16:34.468Z,6.33
2022-09-20T22:19:01.521Z,6.43
2022-09-20T22:21:31.216Z,6.40
2022-09-20T22:24:00.723Z,6.38
2022-09-20T22:26:30.412Z,6.54
2022-09-20T22:28:57.204Z,6.45
2022-09-20T22:31:26.325Z,6.53
2022-09-20T22:33:57.826Z,6.66
2022-09-20T22:36:26.888Z,6.66
2022-09-20T22:38:53.879Z,6.43
2022-09-20T22:41:21.667Z,6.45
2022-09-20T22:43:48.737Z,6.68
2022-09-20T22:46:17.575Z,6.61
2022-09-20T22:48:44.585Z,6.39
2022-09-20T22:51:16.315Z,6.31
2022-09-20T22:53:43.348Z,6.26
2022-09-20T22:56:11.138Z,6.46
2022-09-20T22:58:40.870Z,6.50
2022-09-20T23:01:14.921Z,6.64
2022-09-20T23:03:43.698Z,6.53
2022-09-20T23:06:21.812Z,6.62
2022-09-20T23:08:49.645Z,6.71
2022-09-20T23:11:17.369Z,6.75
2022-09-20T23:13:45.059Z,6.88
2022-09-20T23:16:15.967Z,6.87
2022-09-20T23:18:42.574Z,6.88
2022-09-20T23:21:08.945Z,6.86
2022-09-20T23:23:36.486Z,6.71
2022-09-20T23:26:07.433Z,6.91
2022-09-20T23:28:39.356Z,6.83
2022-09-20T23:31:11.585Z,6.74
2022-09-20T23:33:38.133Z,6.65
2022-09-20T23:36:09.900Z,6.89
2022-09-20T23:38:37.000Z,6.91
2022-09-20T23:41:04.695Z,6.81
2022-09-20T23:43:31.257Z,6.84
2022-09-20T23:45:57.730Z,6.92
2022-09-20T23:48:24.184Z,6.94
2022-09-20T23:50:50.702Z,6.84
2022-09-20T23:53:17.109Z,6.81
2022-09-20T23:55:43.466Z,6.70
2022-09-20T23:58:10.014Z,6.43
